Time;durP1;ratioP1;P1;durP2;ratioP2;P2;SDS_P1;SDS_P2;PMS_P1;PMS_P2;Temp;Humidity;BMP_temperature;BMP_pressure;BME280_temperature;BME280_humidity;BME280_pressure;Samples;Min_cycle;Max_cycle;Signal;HPM_P1;HPM_P2
2023/09/29 00:00:24;;;;;;;23.60;7.50;;;18.30;99.90;;;18.56;87.98;101327.47;4996632;28;20046;-70
2023/09/29 00:02:54;;;;;;;24.20;7.60;;;18.30;99.90;;;18.57;87.76;101326.53;5012492;28;20049;-70
2023/09/29 00:05:23;;;;;;;31.63;8.02;;;18.30;99.90;;;18.54;88.04;101316.78;4999080;28;20121;-70
2023/09/29 00:07:52;;;;;;;20.33;7.15;;;18.30;99.90;;;18.65;88.03;101308.41;5008755;28;20045;-70
2023/09/29 00:10:21;;;;;;;22.00;8.05;;;18.40;99.90;;;18.65;87.87;101313.78;4997931;28;20082;-70
2023/09/29 00:12:51;;;;;;;19.83;7.43;;;18.40;99.90;;;18.61;87.73;101309.44;5002954;28;20101;-70
2023/09/29 00:15:22;;;;;;;21.52;7.53;;;18.40;99.90;;;18.54;87.88;101300.69;5006382;28;20399;-70
2023/09/29 00:17:51;;;;;;;21.17;7.28;;;18.40;99.90;;;18.62;87.78;101312.06;4996266;28;20050;-70
2023/09/29 00:20:23;;;;;;;21.80;7.75;;;18.40;99.90;;;18.60;87.75;101305.88;5005940;28;20046;-70
2023/09/29 00:22:53;;;;;;;21.60;7.57;;;18.40;99.90;;;18.57;87.83;101297.06;5004960;28;20096;-70
2023/09/29 00:25:23;;;;;;;20.67;7.50;;;18.30;99.90;;;18.57;87.99;101291.69;5016126;28;20500;-69
2023/09/29 00:27:52;;;;;;;20.13;7.07;;;18.40;99.90;;;18.65;87.31;101282.50;5012260;28;20412;-70
2023/09/29 00:30:23;;;;;;;27.08;7.65;;;18.50;99.90;;;18.78;86.50;101302.63;5004117;28;20060;-70
2023/09/29 00:32:53;;;;;;;24.33;7.25;;;18.50;99.90;;;18.89;85.96;101297.81;5002544;28;20050;-69
2023/09/29 00:35:28;;;;;;;21.83;7.53;;;18.60;99.90;;;18.78;86.25;101277.63;5012181;28;20106;-70
2023/09/29 00:37:58;;;;;;;20.38;7.63;;;18.70;99.90;;;19.01;86.00;101301.91;5000294;28;20550;-70
2023/09/29 00:40:29;;;;;;;22.98;7.32;;;18.80;99.90;;;18.97;85.90;101294.03;5004918;28;20046;-70
2023/09/29 00:42:58;;;;;;;21.80;7.68;;;18.70;99.90;;;18.86;86.41;101297.91;5008943;28;20053;-70
2023/09/29 00:45:29;;;;;;;20.67;7.47;;;18.60;99.90;;;18.91;86.15;101301.31;4999804;28;20100;-69
2023/09/29 00:48:04;;;;;;;22.08;7.55;;;18.70;99.90;;;18.86;86.18;101292.56;5024180;28;20050;-70
2023/09/29 00:50:34;;;;;;;27.10;7.80;;;18.60;99.90;;;18.89;86.26;101292.44;5007749;28;20054;-70
2023/09/29 00:53:07;;;;;;;25.37;7.27;;;18.60;99.90;;;18.91;86.31;101292.44;4999569;28;20447;-70
2023/09/29 00:55:37;;;;;;;20.98;7.45;;;18.70;99.90;;;18.87;86.36;101283.56;5000305;28;20042;-70
2023/09/29 00:58:06;;;;;;;20.95;6.88;;;18.70;99.90;;;18.91;86.37;101284.38;5015026;28;20053;-70
2023/09/29 01:00:40;;;;;;;27.00;7.80;;;18.70;99.90;;;18.85;86.91;101288.09;5002064;28;20038;-70
2023/09/29 01:03:13;;;;;;;23.23;7.50;;;18.60;99.90;;;18.81;87.01;101283.75;5011360;28;20060;-69
2023/09/29 01:05:43;;;;;;;26.00;8.40;;;18.50;99.90;;;18.71;87.49;101278.75;5001824;28;20046;-69
2023/09/29 01:08:15;;;;;;;22.65;7.90;;;18.40;99.90;;;18.69;87.55;101273.44;5004557;28;20112;-69
2023/09/29 01:10:44;;;;;;;23.08;7.72;;;18.40;99.90;;;18.60;87.88;101280.91;5010528;28;20054;-69
2023/09/29 01:13:13;;;;;;;19.88;8.02;;;18.40;99.90;;;18.62;88.13;101274.53;4998609;28;20042;-69
2023/09/29 01:15:43;;;;;;;20.52;7.45;;;18.30;99.90;;;18.61;88.07;101270.13;5007010;28;20145;-69
2023/09/29 01:18:11;;;;;;;22.35;8.63;;;18.30;99.90;;;18.50;88.54;101257.97;5006881;28;20057;-69
2023/09/29 01:20:41;;;;;;;25.70;8.25;;;18.30;99.90;;;18.52;88.83;101259.69;4998624;28;20104;-69
2023/09/29 01:23:10;;;;;;;24.03;7.90;;;18.20;99.90;;;18.59;88.57;101241.63;5010490;28;20054;-69
2023/09/29 01:25:41;;;;;;;20.27;6.70;;;18.30;99.90;;;18.59;88.82;101238.94;5018649;28;20478;-70
2023/09/29 01:28:11;;;;;;;20.02;8.52;;;18.20;99.90;;;18.62;88.30;101239.72;5000892;28;20046;-70
2023/09/29 01:30:42;;;;;;;22.90;8.07;;;18.30;99.90;;;18.58;88.55;101242.56;5010915;28;20046;-70
2023/09/29 01:33:12;;;;;;;23.00;7.35;;;18.30;99.90;;;18.62;88.97;101239.72;5000647;28;20038;-70
2023/09/29 01:35:43;;;;;;;22.27;7.60;;;18.30;99.90;;;18.59;88.93;101245.19;5004093;28;20108;-70
2023/09/29 01:38:13;;;;;;;24.60;7.72;;;18.30;99.90;;;18.56;89.78;101233.69;5009616;28;20052;-70
2023/09/29 01:40:44;;;;;;;24.27;7.90;;;18.30;99.90;;;18.53;89.98;101229.28;4997258;28;20046;-69
2023/09/29 01:43:13;;;;;;;19.65;7.85;;;18.20;99.90;;;18.51;90.55;101228.47;5007493;28;20064;-70
2023/09/29 01:45:41;;;;;;;19.50;8.02;;;18.20;99.90;;;18.51;90.42;101235.59;5005977;28;20046;-70
2023/09/29 01:48:11;;;;;;;20.65;7.50;;;18.20;99.90;;;18.63;90.20;101243.28;4999419;28;20109;-69
2023/09/29 01:50:40;;;;;;;15.05;6.93;;;18.30;99.90;;;18.91;89.43;101247.69;5010830;28;20054;-70
2023/09/29 01:53:11;;;;;;;23.63;7.90;;;18.50;99.90;;;19.15;88.25;101250.50;5002309;28;20064;-70
2023/09/29 01:55:41;;;;;;;20.42;7.32;;;18.80;99.90;;;19.35;87.07;101240.00;5002363;28;20053;-70
2023/09/29 01:58:10;;;;;;;19.27;7.70;;;19.00;99.90;;;19.38;86.32;101239.91;5025719;28;20049;-69
2023/09/29 02:00:38;;;;;;;20.10;7.10;;;19.10;99.90;;;19.36;85.86;101234.59;4997998;28;20042;-70
2023/09/29 02:03:07;;;;;;;24.98;8.52;;;19.10;99.90;;;19.32;85.78;101230.25;5020871;28;20108;-70
2023/09/29 02:05:36;;;;;;;20.63;6.88;;;19.10;99.90;;;19.34;85.92;101224.84;5007273;28;20054;-70
2023/09/29 02:08:06;;;;;;;19.58;7.13;;;19.10;99.90;;;19.26;85.92;101226.91;5013114;28;20049;-70
2023/09/29 02:10:35;;;;;;;19.90;7.27;;;18.90;99.90;;;19.15;86.33;101219.19;5023961;28;20141;-70
2023/09/29 02:13:05;;;;;;;21.42;6.95;;;18.90;99.90;;;18.99;86.57;101207.22;5003286;28;20037;-70
2023/09/29 02:15:35;;;;;;;20.27;7.20;;;18.70;99.90;;;19.01;87.21;101215.25;4998359;28;20142;-70
2023/09/29 02:18:05;;;;;;;22.02;7.63;;;18.70;99.90;;;18.98;87.11;101221.56;5025042;28;20046;-70
2023/09/29 02:20:36;;;;;;;15.55;7.07;;;18.70;99.90;;;18.99;87.13;101215.28;4998856;28;20077;-70
2023/09/29 02:23:07;;;;;;;17.38;7.35;;;18.70;99.90;;;19.02;86.95;101222.34;5017883;28;20074;-69
2023/09/29 02:25:35;;;;;;;17.40;6.55;;;18.80;99.90;;;19.24;86.88;101218.03;5024117;28;20050;-70
2023/09/29 02:28:05;;;;;;;18.27;7.32;;;18.90;99.90;;;19.30;87.47;101218.66;5012735;28;20056;-69
2023/09/29 02:30:34;;;;;;;16.88;6.85;;;19.00;99.90;;;19.25;88.44;101204.53;5005774;28;20042;-69
2023/09/29 02:33:02;;;;;;;21.73;7.65;;;19.00;99.90;;;19.32;88.41;101203.44;5004945;28;20052;-69
2023/09/29 02:35:31;;;;;;;18.00;7.07;;;19.00;99.90;;;19.35;88.66;101191.72;5012475;28;20046;-69
2023/09/29 02:38:03;;;;;;;20.08;7.30;;;19.10;99.90;;;19.20;89.28;101200.28;4997437;28;20054;-70
2023/09/29 02:40:31;;;;;;;18.48;7.28;;;19.00;99.90;;;19.06;90.12;101181.97;5013130;28;20034;-69
2023/09/29 02:43:00;;;;;;;23.08;7.05;;;18.80;99.90;;;18.96;90.46;101185.00;5001087;28;20503;-69
2023/09/29 02:45:30;;;;;;;20.92;7.75;;;18.70;99.90;;;18.90;91.26;101168.22;5009250;28;20049;-69
2023/09/29 02:47:58;;;;;;;20.98;7.15;;;18.60;99.90;;;18.83;92.28;101155.06;4998306;28;20042;-70
2023/09/29 02:50:27;;;;;;;20.95;7.28;;;18.60;99.90;;;18.76;93.14;101165.09;5004387;28;20057;-70
2023/09/29 02:52:56;;;;;;;20.48;7.65;;;18.50;99.90;;;18.70;94.17;101159.94;5006566;28;20053;-70
2023/09/29 02:55:26;;;;;;;23.13;7.47;;;18.50;99.90;;;18.78;94.04;101160.56;4997084;28;20568;-70
2023/09/29 02:57:54;;;;;;;17.48;6.60;;;18.50;99.90;;;18.79;94.53;101159.63;5007933;28;20047;-70
2023/09/29 03:00:27;;;;;;;19.75;6.68;;;18.50;99.90;;;18.82;94.62;101159.53;5003160;28;20042;-70
2023/09/29 03:02:56;;;;;;;18.10;7.05;;;18.50;99.90;;;18.88;94.99;101150.41;5014332;28;20484;-70
2023/09/29 03:05:27;;;;;;;19.75;6.72;;;18.60;99.90;;;18.84;94.85;101149.66;5009637;28;20042;-70
2023/09/29 03:07:56;;;;;;;15.68;6.53;;;18.60;99.90;;;18.85;94.49;101123.72;4999226;28;20488;-69
2023/09/29 03:10:28;;;;;;;14.90;6.78;;;18.60;99.90;;;18.99;93.85;101152.75;5001761;28;20051;-70
2023/09/29 03:12:57;;;;;;;16.90;6.40;;;18.70;99.90;;;18.88;94.01;101143.25;5008847;28;20045;-70
2023/09/29 03:15:27;;;;;;;17.85;7.25;;;18.70;99.90;;;18.85;94.60;101146.03;4996055;28;20487;-70
2023/09/29 03:17:57;;;;;;;20.00;7.78;;;18.60;99.90;;;18.79;94.89;101145.38;5013180;28;20058;-70
2023/09/29 03:20:28;;;;;;;15.30;7.15;;;18.60;99.90;;;18.76;95.16;101140.97;5000961;28;20049;-70
2023/09/29 03:23:00;;;;;;;17.50;7.13;;;18.50;99.90;;;18.81;95.21;101140.84;5009494;28;20488;-70
2023/09/29 03:25:29;;;;;;;15.43;6.75;;;18.50;99.90;;;18.92;94.88;101135.97;4998567;28;20046;-70
2023/09/29 03:27:59;;;;;;;17.58;7.43;;;18.60;99.90;;;18.89;94.84;101131.59;5018692;28;20050;-70
2023/09/29 03:30:31;;;;;;;17.30;7.38;;;18.60;99.90;;;18.92;95.06;101126.13;5007240;28;20108;-70
2023/09/29 03:33:01;;;;;;;20.23;8.05;;;18.70;99.90;;;18.95;95.30;101116.25;4996443;28;20056;-69
2023/09/29 03:35:30;;;;;;;17.92;7.18;;;18.70;99.90;;;19.01;94.84;101114.19;5005611;28;20053;-70
2023/09/29 03:37:58;;;;;;;17.13;7.55;;;18.70;99.90;;;18.97;95.14;101112.56;5003230;28;20412;-70
2023/09/29 03:40:27;;;;;;;19.15;7.72;;;18.70;99.90;;;18.92;95.75;101109.16;4997323;28;20042;-70
2023/09/29 03:42:55;;;;;;;13.77;7.00;;;18.70;99.90;;;18.96;96.03;101121.53;5009160;28;20077;-69
2023/09/29 03:45:25;;;;;;;21.55;7.78;;;18.70;99.90;;;19.03;95.63;101106.13;4999811;28;20073;-70
2023/09/29 03:47:53;;;;;;;17.15;7.47;;;18.70;99.90;;;19.05;95.93;101104.28;5001237;28;20407;-70
2023/09/29 03:50:23;;;;;;;15.57;6.55;;;18.80;99.90;;;19.01;95.77;101103.47;5008174;28;20050;-70
2023/09/29 03:52:52;;;;;;;16.40;6.57;;;18.80;99.90;;;19.07;95.89;101105.06;4996460;28;20050;-70
2023/09/29 03:55:20;;;;;;;15.45;6.82;;;18.80;99.90;;;19.15;95.82;101100.31;5004840;28;20133;-70
2023/09/29 03:57:49;;;;;;;14.55;6.82;;;18.80;99.90;;;19.13;95.96;101092.31;5005636;28;20488;-70
2023/09/29 04:00:18;;;;;;;14.73;6.90;;;18.90;99.90;;;19.10;95.69;101092.44;5000410;28;20074;-70
2023/09/29 04:02:50;;;;;;;15.65;7.18;;;18.90;99.90;;;19.19;95.94;101102.84;5000891;28;20403;-70
2023/09/29 04:05:20;;;;;;;11.77;6.72;;;18.90;99.90;;;19.24;96.10;101102.69;5007624;28;20046;-70
2023/09/29 04:07:50;;;;;;;14.07;6.13;;;19.00;99.90;;;19.35;95.65;101100.50;5009422;28;20053;-69
2023/09/29 04:10:20;;;;;;;14.70;6.63;;;19.10;99.90;;;19.38;95.93;101097.69;5000393;28;20504;-70
2023/09/29 04:12:49;;;;;;;13.13;6.30;;;19.10;99.90;;;19.54;95.50;101099.78;5010744;28;20073;-70
2023/09/29 04:15:18;;;;;;;15.25;6.57;;;19.20;99.90;;;19.51;95.54;101104.38;5006162;28;20133;-69
2023/09/29 04:17:46;;;;;;;15.48;6.88;;;19.30;99.90;;;19.60;95.25;101091.50;5017556;28;20470;-72
2023/09/29 04:20:16;;;;;;;16.02;6.32;;;19.30;99.90;;;19.68;95.04;101096.56;5012459;28;20050;-70
2023/09/29 04:22:45;;;;;;;14.88;6.55;;;19.40;99.90;;;19.62;94.42;101075.31;5002449;28;20050;-70
2023/09/29 04:25:16;;;;;;;10.70;5.55;;;19.50;99.90;;;19.93;94.25;101108.13;5005683;28;20120;-70
2023/09/29 04:27:44;;;;;;;14.20;5.78;;;19.60;99.90;;;19.99;93.61;101107.00;5011016;28;20434;-70
2023/09/29 04:30:13;;;;;;;13.80;6.13;;;19.70;99.90;;;20.07;93.06;101121.00;4999898;28;20046;-70
2023/09/29 04:32:42;;;;;;;14.30;5.85;;;19.70;99.90;;;20.17;92.52;101117.03;5008889;28;20488;-70
2023/09/29 04:35:11;;;;;;;14.38;6.25;;;19.80;99.90;;;20.29;92.10;101104.00;5007265;28;20048;-70
2023/09/29 04:37:40;;;;;;;13.80;6.47;;;19.90;99.90;;;20.31;91.70;101112.88;5000591;28;20402;-70
2023/09/29 04:40:09;;;;;;;13.65;5.72;;;19.90;99.90;;;20.37;91.38;101120.69;5011259;28;20093;-70
2023/09/29 04:42:39;;;;;;;15.93;6.13;;;20.00;99.90;;;20.39;91.14;101100.00;5003310;28;20480;-69
2023/09/29 04:45:09;;;;;;;12.07;5.93;;;20.10;99.90;;;20.32;90.92;101087.75;5003336;28;20683;-70
2023/09/29 04:47:38;;;;;;;15.48;6.18;;;20.10;99.90;;;20.48;90.72;101088.84;5011649;28;20045;-70
2023/09/29 04:50:14;;;;;;;10.32;5.40;;;20.10;99.90;;;20.38;91.32;101082.09;5000513;28;20050;-70
2023/09/29 04:52:42;;;;;;;12.90;5.63;;;20.00;99.90;;;20.36;91.12;101092.03;5006064;28;20097;-70
2023/09/29 04:55:11;;;;;;;12.05;5.53;;;20.00;99.90;;;20.43;91.27;101090.00;5009262;28;20046;-70
2023/09/29 04:57:40;;;;;;;11.65;5.82;;;20.00;99.90;;;20.50;91.16;101084.28;4998958;28;20054;-70
2023/09/29 05:00:10;;;;;;;10.23;6.30;;;20.10;99.90;;;20.48;90.99;101083.47;5009809;28;20134;-70
2023/09/29 05:02:39;;;;;;;9.68;5.93;;;20.20;99.90;;;20.53;90.83;101088.69;5005688;28;20057;-70
2023/09/29 05:05:09;;;;;;;14.20;6.03;;;20.20;99.90;;;20.55;91.02;101090.38;5001116;28;20046;-70
2023/09/29 05:07:37;;;;;;;12.50;5.90;;;20.20;99.90;;;20.58;91.07;101089.34;5011548;28;20049;-70
2023/09/29 05:10:07;;;;;;;11.75;5.95;;;20.20;99.90;;;20.58;90.68;101092.03;5000877;28;20060;-70
2023/09/29 05:12:36;;;;;;;13.32;5.78;;;20.20;99.90;;;20.57;90.94;101077.75;5004402;28;20062;-70
2023/09/29 05:15:08;;;;;;;11.15;5.78;;;20.30;99.90;;;20.67;90.79;101087.13;5010167;28;20046;-70
2023/09/29 05:17:36;;;;;;;10.23;5.50;;;20.30;99.90;;;20.69;90.52;101090.63;4998963;28;20042;-70
2023/09/29 05:20:12;;;;;;;11.35;5.38;;;20.30;99.90;;;20.67;90.57;101089.84;5006873;28;20051;-70
2023/09/29 05:22:41;;;;;;;10.40;5.40;;;20.30;99.90;;;20.82;90.27;101088.31;5008025;28;20472;-70
2023/09/29 05:25:10;;;;;;;10.68;4.90;;;20.40;99.90;;;20.79;90.30;101090.28;4999057;28;20564;-70
2023/09/29 05:27:38;;;;;;;10.43;5.75;;;20.40;99.90;;;20.86;90.15;101100.69;5010034;28;20050;-71
2023/09/29 05:30:09;;;;;;;11.00;5.65;;;20.40;99.90;;;20.89;90.21;101096.97;5004057;28;20116;-70
2023/09/29 05:32:38;;;;;;;12.52;5.88;;;20.50;99.90;;;20.92;90.31;101096.88;5001412;28;20053;-70
2023/09/29 05:35:09;;;;;;;11.80;5.53;;;20.50;99.90;;;20.72;90.21;101065.44;5010952;28;20124;-70
2023/09/29 05:37:37;;;;;;;;;;;20.50;99.90;;;20.89;90.32;101092.47;5001388;28;20049;-70
2023/09/29 05:40:07;;;;;;;13.13;5.18;;;20.50;99.90;;;20.87;90.50;101096.16;5004028;28;19921;-70
2023/09/29 05:42:35;;;;;;;8.15;5.25;;;20.50;99.90;;;20.95;90.57;101096.72;5008470;28;20038;-70
2023/09/29 05:45:21;;;;;;;9.82;5.03;;;20.50;99.90;;;20.98;90.52;101096.59;4998768;28;20045;-70
2023/09/29 05:47:51;;;;;;;10.77;5.32;;;20.60;99.90;;;20.96;90.66;101094.00;5012626;28;20053;-70
2023/09/29 05:50:21;;;;;;;10.30;5.35;;;20.60;99.90;;;20.94;91.17;101101.25;5016186;28;20150;-70
2023/09/29 05:52:50;;;;;;;12.35;5.55;;;20.50;99.90;;;20.96;91.25;101098.47;5010057;28;20050;-70
2023/09/29 05:55:36;;;;;;;10.50;5.63;;;20.60;99.90;;;21.00;91.32;101102.78;5002435;28;20050;-70
2023/09/29 05:58:05;;;;;;;11.77;5.78;;;20.60;99.90;;;21.01;91.33;101096.50;5002172;28;20120;-69
2023/09/29 06:00:35;;;;;;;9.13;5.20;;;20.60;99.90;;;20.94;91.80;101112.00;5010127;28;20045;-70
2023/09/29 06:03:04;;;;;;;9.93;5.55;;;20.60;99.90;;;20.98;91.94;101101.97;4998782;28;20050;-69
2023/09/29 06:05:32;;;;;;;8.48;4.75;;;20.60;99.90;;;21.06;91.97;101105.25;5005730;28;20050;-70
2023/09/29 06:08:01;;;;;;;11.60;5.22;;;20.60;99.90;;;21.13;91.95;101104.91;5006948;28;20049;-70
2023/09/29 06:10:29;;;;;;;12.60;6.03;;;20.70;99.90;;;21.17;91.77;101111.03;4998003;28;20105;-70
2023/09/29 06:12:57;;;;;;;9.98;5.53;;;20.70;99.90;;;21.13;92.04;101104.91;5008988;28;20404;-70
2023/09/29 06:15:26;;;;;;;8.35;5.32;;;20.70;99.90;;;21.16;92.02;101114.66;5002955;28;20048;-70
2023/09/29 06:17:56;;;;;;;10.65;5.55;;;20.70;99.90;;;21.15;92.27;101129.06;5016043;28;20086;-70
2023/09/29 06:20:24;;;;;;;;;;;20.70;99.90;;;21.14;92.44;101112.03;5010773;28;20395;-70
2023/09/29 06:22:53;;;;;;;10.68;5.53;;;20.70;99.90;;;21.09;92.66;101132.00;4999389;28;20025;-70
2023/09/29 06:25:21;;;;;;;13.68;5.82;;;20.70;99.90;;;21.17;93.31;101119.09;5004359;28;20038;-70
2023/09/29 06:27:50;;;;;;;10.80;5.68;;;20.70;99.90;;;21.16;93.51;101111.94;5023047;28;20079;-70
2023/09/29 06:30:18;;;;;;;8.15;5.22;;;20.70;99.90;;;21.26;93.44;101110.59;4997617;28;20093;-69
2023/09/29 06:32:47;;;;;;;8.10;5.05;;;20.80;99.90;;;21.28;93.20;101122.19;5007922;28;20093;-71
2023/09/29 06:35:17;;;;;;;11.68;5.30;;;20.80;99.90;;;21.21;93.29;101115.34;5002708;28;20377;-70
2023/09/29 06:37:45;;;;;;;10.38;5.25;;;20.80;99.90;;;21.26;93.45;101129.44;4999941;28;20046;-70
2023/09/29 06:40:15;;;;;;;11.02;5.28;;;20.80;99.90;;;21.24;93.84;101123.25;5009543;28;20455;-70
2023/09/29 06:42:43;;;;;;;11.02;5.30;;;20.80;99.90;;;21.25;93.92;101128.56;4999371;28;20084;-70
2023/09/29 06:45:12;;;;;;;14.55;6.40;;;20.80;99.90;;;21.28;93.96;101132.94;5002266;28;20073;-70
2023/09/29 06:47:41;;;;;;;8.10;5.10;;;20.80;99.90;;;21.22;94.51;101133.22;5007807;28;20101;-70
2023/09/29 06:50:10;;;;;;;8.50;5.10;;;20.80;99.90;;;21.28;94.59;101127.56;4997032;28;20588;-70
2023/09/29 06:52:41;;;;;;;8.93;4.97;;;20.80;99.90;;;21.20;95.07;101114.44;5006156;28;20057;-70
2023/09/29 06:55:09;;;;;;;8.68;5.15;;;20.80;99.90;;;21.21;95.47;101140.44;4984965;28;20338;-70
2023/09/29 06:57:38;;;;;;;8.25;5.72;;;20.80;99.90;;;21.26;95.67;101130.34;4977583;28;20085;-70
2023/09/29 07:00:08;;;;;;;10.63;5.93;;;20.80;99.90;;;21.28;95.86;101135.63;4989346;28;20404;-73
2023/09/29 07:02:37;;;;;;;;;;;20.80;99.90;;;21.29;95.94;101130.19;4981876;28;20047;-77
2023/09/29 07:05:06;;;;;;;14.95;5.85;;;20.90;99.90;;;21.25;96.31;101128.56;4981468;28;19976;-75
2023/09/29 07:07:35;;;;;;;15.93;6.22;;;20.80;99.90;;;21.23;96.88;101143.06;4988451;28;20507;-76
2023/09/29 07:10:06;;;;;;;11.40;5.70;;;20.80;99.90;;;21.15;97.03;101126.38;4978422;28;20463;-79
2023/09/29 07:12:34;;;;;;;9.40;5.63;;;20.80;99.90;;;21.33;97.08;101144.41;4984620;28;20121;-78
2023/09/29 07:15:03;;;;;;;8.57;5.28;;;20.80;99.90;;;21.36;97.23;101141.56;4986194;28;20034;-82
2023/09/29 07:17:32;;;;;;;10.38;6.47;;;20.90;99.90;;;21.30;97.75;101153.47;4977602;28;20062;-76
2023/09/29 07:20:00;;;;;;;12.43;6.30;;;20.90;99.90;;;21.35;98.09;101159.53;4988230;28;20085;-75
2023/09/29 07:22:29;;;;;;;12.00;6.18;;;20.90;99.90;;;21.38;97.82;101145.94;4983229;28;20078;-81
2023/09/29 07:24:57;;;;;;;9.00;5.82;;;20.90;99.90;;;21.36;98.23;101158.59;4995178;28;20137;-77
2023/09/29 07:27:27;;;;;;;8.10;5.90;;;20.90;99.90;;;21.40;98.51;101145.88;4989630;28;20068;-75
2023/09/29 07:29:56;;;;;;;16.05;6.25;;;20.90;99.90;;;21.39;98.78;101155.75;4979548;28;20057;-79
2023/09/29 07:32:26;;;;;;;11.73;6.07;;;21.00;99.90;;;21.38;99.06;101154.03;4985228;28;20053;-76
2023/09/29 07:34:54;;;;;;;16.73;5.85;;;21.00;99.90;;;21.42;99.31;101168.22;4994063;28;20077;-79
2023/09/29 07:37:23;;;;;;;11.98;6.75;;;21.00;99.90;;;21.40;99.66;101157.53;4983777;28;20054;-69
2023/09/29 07:39:51;;;;;;;10.63;6.15;;;21.00;99.90;;;21.38;99.67;101156.72;4993765;28;20077;-70
2023/09/29 07:42:19;;;;;;;9.43;6.50;;;20.90;99.90;;;21.44;100.00;101155.56;4990600;28;20096;-69
2023/09/29 07:44:49;;;;;;;12.60;5.65;;;21.00;99.90;;;21.46;100.00;101148.28;4985525;28;20121;-82
2023/09/29 07:47:17;;;;;;;12.73;6.37;;;21.00;99.90;;;21.53;99.66;101156.03;4995836;28;20125;-72
2023/09/29 07:49:46;;;;;;;9.27;5.80;;;21.10;99.90;;;21.58;99.25;101149.56;4986511;28;20290;-72
2023/09/29 07:52:14;;;;;;;12.75;5.30;;;21.20;99.90;;;21.61;98.65;101150.28;4988965;28;20046;-72
2023/09/29 07:54:42;;;;;;;9.32;5.68;;;21.20;99.90;;;21.59;98.50;101165.63;5010910;28;20093;-71
2023/09/29 07:57:11;;;;;;;11.88;5.70;;;21.20;99.90;;;21.59;98.21;101162.94;5002247;28;20455;-73
2023/09/29 07:59:39;;;;;;;10.40;5.85;;;21.20;99.90;;;21.66;98.08;101172.47;5011621;28;20050;-70
2023/09/29 08:02:10;;;;;;;13.27;6.43;;;21.20;99.90;;;21.67;97.78;101171.56;5009672;28;20435;-65
2023/09/29 08:04:38;;;;;;;11.25;5.95;;;21.20;99.90;;;21.77;97.50;101175.59;5003279;28;20042;-70
2023/09/29 08:07:07;;;;;;;14.18;6.30;;;21.30;99.90;;;21.76;97.31;101178.31;5015536;28;20057;-69
2023/09/29 08:09:36;;;;;;;9.30;5.28;;;21.40;99.90;;;21.82;97.06;101178.09;5006389;28;20046;-73
2023/09/29 08:12:05;;;;;;;10.07;5.13;;;21.40;99.90;;;21.94;96.94;101188.31;5007196;28;20373;-73
2023/09/29 08:14:33;;;;;;;9.48;5.55;;;21.50;99.90;;;22.00;96.42;101191.59;5015131;28;20491;-71
2023/09/29 08:17:02;;;;;;;8.55;5.57;;;21.60;99.90;;;22.01;96.59;101193.34;5003233;28;20135;-73
2023/09/29 08:19:32;;;;;;;10.73;5.78;;;21.60;99.90;;;22.07;96.26;101193.06;5011063;28;20392;-78
2023/09/29 08:22:00;;;;;;;9.17;5.63;;;21.70;99.90;;;22.16;96.25;101195.31;5011275;28;20092;-71
2023/09/29 08:24:28;;;;;;;11.07;5.45;;;21.70;99.90;;;22.31;95.92;101207.22;5002658;28;20053;-70
2023/09/29 08:26:57;;;;;;;7.95;5.20;;;21.80;99.90;;;22.31;94.86;101205.41;5029846;28;20128;-71
2023/09/29 08:29:25;;;;;;;12.20;5.65;;;21.90;99.90;;;22.38;95.16;101206.84;5007100;28;20222;-71
2023/09/29 08:31:56;;;;;;;10.63;5.25;;;22.00;99.90;;;22.14;94.30;101197.19;5005735;28;20048;-72
2023/09/29 08:34:24;;;;;;;11.10;5.50;;;21.90;99.90;;;22.30;94.87;101214.41;5014615;28;20096;-69
2023/09/29 08:36:54;;;;;;;8.63;5.00;;;21.80;99.90;;;22.16;94.79;101211.47;5003658;28;20053;-66
2023/09/29 08:39:23;;;;;;;12.40;5.72;;;21.80;99.90;;;22.14;95.15;101207.97;5009670;28;20078;-67
2023/09/29 08:42:01;;;;;;;33.50;6.30;;;21.80;99.90;;;22.09;95.45;101218.13;5012863;28;20044;-72
2023/09/29 08:44:30;;;;;;;22.50;6.32;;;21.70;99.90;;;22.12;95.95;101215.28;5000607;28;20125;-67
2023/09/29 08:47:01;;;;;;;35.05;7.13;;;21.70;99.90;;;21.94;97.13;101226.91;5008525;28;20463;-65
2023/09/29 08:49:31;;;;;;;8.75;4.93;;;21.60;99.90;;;22.01;98.52;101244.53;5007577;28;20038;-67
2023/09/29 08:52:20;;;;;;;6.13;4.68;;;21.60;99.90;;;21.99;99.35;101240.19;4999635;28;20051;-73
2023/09/29 08:54:49;;;;;;;5.72;4.57;;;21.60;99.90;;;21.94;99.96;101244.88;5008310;28;20117;-72
2023/09/29 08:57:20;;;;;;;9.10;5.30;;;21.50;99.90;;;21.86;100.00;101245.22;5006923;28;20100;-69
2023/09/29 08:59:53;;;;;;;8.63;4.93;;;21.40;99.90;;;21.85;100.00;101235.41;5000160;28;20042;-68
2023/09/29 09:02:24;;;;;;;10.18;5.30;;;21.40;99.90;;;21.79;100.00;101226.69;4999576;28;20046;-69
2023/09/29 09:04:52;;;;;;;;;;;21.40;99.90;;;21.77;100.00;101240.22;5007544;28;20042;-74
2023/09/29 09:07:23;;;;;;;8.23;5.05;;;21.30;99.90;;;21.73;100.00;101238.63;5007964;28;20383;-74
2023/09/29 09:09:57;;;;;;;8.52;5.60;;;21.30;99.90;;;21.79;100.00;101232.97;4998979;28;20052;-70
2023/09/29 09:12:33;;;;;;;11.50;6.10;;;21.30;99.90;;;21.77;100.00;101229.44;5009547;28;20089;-74
2023/09/29 09:15:03;;;;;;;8.13;5.40;;;21.30;99.90;;;21.72;100.00;101241.38;5006534;28;20049;-73
2023/09/29 09:17:34;;;;;;;8.90;5.70;;;21.30;99.90;;;21.71;100.00;101237.81;5000264;28;20051;-72
2023/09/29 09:20:03;;;;;;;8.02;5.20;;;21.30;99.90;;;21.73;100.00;101252.06;5011298;28;20042;-71
2023/09/29 09:22:38;;;;;;;9.27;5.40;;;21.30;99.90;;;21.62;100.00;101251.69;5002944;28;20054;-69
2023/09/29 09:25:15;;;;;;;7.53;4.93;;;21.20;99.90;;;21.55;100.00;101250.19;5001683;28;20369;-69
2023/09/29 09:27:44;;;;;;;6.63;5.00;;;21.10;99.90;;;21.58;100.00;101250.91;5011205;28;20042;-69
2023/09/29 09:30:23;;;;;;;8.13;5.53;;;21.20;99.90;;;21.49;100.00;101240.56;5001120;28;20488;-69
2023/09/29 09:32:52;;;;;;;7.47;5.38;;;21.10;99.90;;;21.56;100.00;101260.03;5002720;28;20046;-69
2023/09/29 09:35:25;;;;;;;7.35;5.18;;;21.10;99.90;;;21.53;100.00;101262.84;5009811;28;20520;-69
2023/09/29 09:37:56;;;;;;;10.73;5.68;;;21.10;99.90;;;21.55;100.00;101271.72;4997692;28;20045;-68
2023/09/29 09:40:25;;;;;;;;;;;21.10;99.90;;;21.58;100.00;101264.38;5015175;28;20041;-69
2023/09/29 09:42:54;;;;;;;7.88;5.28;;;21.20;99.90;;;21.43;100.00;101239.94;5001342;28;19933;-68
2023/09/29 09:45:25;;;;;;;11.27;6.00;;;21.20;99.90;;;21.54;100.00;101267.28;5011053;28;20049;-69
2023/09/29 09:47:58;;;;;;;10.63;5.53;;;21.10;99.90;;;21.62;100.00;101283.13;5000628;28;20050;-68
2023/09/29 09:50:30;;;;;;;9.55;6.00;;;21.10;99.90;;;21.61;100.00;101290.31;5004369;28;20053;-68
2023/09/29 09:53:03;;;;;;;10.82;6.22;;;21.20;99.90;;;21.53;100.00;101282.56;5009416;28;20056;-67
2023/09/29 09:55:39;;;;;;;13.27;5.95;;;21.10;99.90;;;21.55;100.00;101293.25;4997814;28;20058;-68
2023/09/29 09:58:12;;;;;;;7.45;4.78;;;21.10;99.90;;;21.51;100.00;101313.19;5005317;28;20046;-68
2023/09/29 10:00:44;;;;;;;7.32;4.95;;;21.10;99.90;;;21.35;100.00;101312.09;5008097;28;20057;-68
2023/09/29 10:03:16;;;;;;;6.45;4.10;;;21.00;99.90;;;21.13;100.00;101324.66;5013525;28;20042;-68
2023/09/29 10:05:52;;;;;;;8.40;4.00;;;20.70;99.90;;;21.03;100.00;101325.97;5007768;28;20042;-68
2023/09/29 10:08:29;;;;;;;8.07;3.67;;;20.60;99.90;;;21.12;100.00;101339.03;5021093;28;20049;-67
2023/09/29 10:11:12;;;;;;;9.10;3.90;;;20.70;99.90;;;21.07;100.00;101339.25;4998326;28;20038;-68
2023/09/29 10:13:44;;;;;;;10.80;4.25;;;20.70;99.90;;;20.73;100.00;101359.41;5007064;28;20050;-68
2023/09/29 10:16:23;;;;;;;8.27;3.95;;;20.40;99.90;;;20.51;100.00;101353.97;5005706;28;20495;-68
2023/09/29 10:18:57;;;;;;;12.13;4.88;;;20.20;99.90;;;20.15;100.00;101363.34;4997840;28;20411;-68